createdAt,value
2019-05-18T00:00:13.858Z,13.90
2019-05-18T00:01:13.859Z,15.70
2019-05-18T00:02:13.890Z,13.90
2019-05-18T00:03:13.850Z,15.10
2019-05-18T00:04:13.845Z,17.30
2019-05-18T00:05:13.842Z,14.70
2019-05-18T00:06:13.836Z,15.60
2019-05-18T00:07:13.837Z,13.80
2019-05-18T00:08:13.831Z,17.20
2019-05-18T00:09:13.827Z,14.30
2019-05-18T00:10:13.842Z,15.90
2019-05-18T00:11:13.821Z,16.70
2019-05-18T00:12:13.817Z,19.60
2019-05-18T00:13:13.836Z,13.70
2019-05-18T00:14:13.808Z,16.10
2019-05-18T00:15:13.809Z,14.00
2019-05-18T00:16:13.803Z,12.90
2019-05-18T00:17:25.089Z,13.20
2019-05-18T00:18:13.800Z,15.00
2019-05-18T00:19:13.792Z,15.70
2019-05-18T00:20:13.789Z,15.40
2019-05-18T00:21:13.785Z,15.80
2019-05-18T00:22:13.781Z,11.00
2019-05-18T00:23:13.778Z,13.40
2019-05-18T00:24:13.774Z,13.30
2019-05-18T00:25:13.785Z,16.90
2019-05-18T00:26:13.766Z,16.30
2019-05-18T00:27:13.762Z,9.00
2019-05-18T00:28:13.761Z,12.30
2019-05-18T00:29:13.755Z,14.00
2019-05-18T00:30:13.760Z,13.20
2019-05-18T00:31:13.748Z,13.60
2019-05-18T00:32:13.765Z,10.90
2019-05-18T00:33:13.743Z,11.50
2019-05-18T00:34:13.738Z,14.20
2019-05-18T00:35:16.527Z,14.20
2019-05-18T00:36:13.730Z,9.40
2019-05-18T00:37:13.729Z,12.00
2019-05-18T00:38:13.723Z,15.90
2019-05-18T00:39:13.732Z,12.20
2019-05-18T00:40:13.719Z,16.80
2019-05-18T00:41:13.716Z,9.90
2019-05-18T00:42:13.707Z,9.70
2019-05-18T00:43:13.704Z,11.70
2019-05-18T00:44:13.701Z,12.90
2019-05-18T00:45:13.698Z,13.10
2019-05-18T00:46:13.701Z,9.90
2019-05-18T00:47:13.690Z,10.80
2019-05-18T00:48:13.685Z,12.80
2019-05-18T00:49:13.683Z,15.10
2019-05-18T00:50:13.690Z,19.20
2019-05-18T00:51:13.675Z,15.80
2019-05-18T00:52:13.672Z,16.60
2019-05-18T00:53:13.667Z,15.10
2019-05-18T00:54:13.665Z,17.50
2019-05-18T00:55:13.661Z,13.30
2019-05-18T00:56:13.656Z,16.20
2019-05-18T00:57:13.651Z,16.70
2019-05-18T00:58:13.647Z,15.10
2019-05-18T00:59:16.076Z,11.90
2019-05-18T01:00:13.639Z,12.30
2019-05-18T01:01:13.638Z,14.30
2019-05-18T01:02:13.632Z,15.60
2019-05-18T01:03:13.629Z,14.90
2019-05-18T01:04:13.625Z,16.20
2019-05-18T01:05:13.636Z,16.10
2019-05-18T01:06:13.625Z,14.60
2019-05-18T01:07:13.611Z,17.40
2019-05-18T01:08:13.611Z,16.30
2019-05-18T01:09:13.610Z,13.60
2019-05-18T01:10:13.605Z,18.60
2019-05-18T01:11:13.596Z,16.30
2019-05-18T01:12:13.593Z,14.20
2019-05-18T01:13:13.591Z,17.70
2019-05-18T01:14:13.585Z,14.00
2019-05-18T01:15:13.581Z,23.40
2019-05-18T01:16:13.579Z,18.10
2019-05-18T01:17:13.575Z,13.90
2019-05-18T01:18:13.569Z,13.90
2019-05-18T01:19:13.567Z,12.20
2019-05-18T01:20:13.562Z,14.40
2019-05-18T01:21:13.559Z,12.80
2019-05-18T01:22:13.558Z,13.50
2019-05-18T01:23:13.551Z,12.20
2019-05-18T01:24:13.546Z,20.30
2019-05-18T01:25:13.542Z,15.20
2019-05-18T01:26:13.538Z,14.60
2019-05-18T01:27:13.533Z,13.20
2019-05-18T01:28:13.530Z,11.60
2019-05-18T01:29:13.526Z,16.30
2019-05-18T01:30:13.522Z,13.10
2019-05-18T01:31:13.520Z,14.40
2019-05-18T01:32:13.515Z,16.90
2019-05-18T01:33:13.510Z,15.60
2019-05-18T01:34:13.506Z,11.80
2019-05-18T01:35:13.502Z,12.20
2019-05-18T01:36:13.497Z,13.30
2019-05-18T01:37:13.497Z,15.50
2019-05-18T01:38:13.490Z,16.70
2019-05-18T01:39:13.489Z,21.60
2019-05-18T01:40:13.482Z,15.70
2019-05-18T01:41:13.477Z,13.50
2019-05-18T01:42:13.476Z,18.20
2019-05-18T01:43:13.469Z,13.60
2019-05-18T01:44:13.465Z,15.60
2019-05-18T01:45:17.167Z,14.40
2019-05-18T01:46:13.455Z,14.10
2019-05-18T01:47:13.457Z,15.70
2019-05-18T01:48:14.655Z,18.90
2019-05-18T01:49:13.446Z,18.40
2019-05-18T01:50:13.441Z,16.80
2019-05-18T01:51:13.438Z,17.70
2019-05-18T01:52:13.431Z,17.40
2019-05-18T01:53:13.428Z,21.30
2019-05-18T01:54:13.430Z,18.50
2019-05-18T01:55:13.419Z,20.00
2019-05-18T01:56:13.415Z,17.20
2019-05-18T01:57:13.411Z,15.80
2019-05-18T01:58:13.405Z,19.70
2019-05-18T01:59:13.402Z,21.70
2019-05-18T02:00:13.397Z,21.70
2019-05-18T02:01:13.394Z,17.80
2019-05-18T02:02:13.391Z,18.80
2019-05-18T02:03:13.384Z,18.40
2019-05-18T02:04:13.383Z,19.90
2019-05-18T02:05:13.377Z,17.20
2019-05-18T02:06:13.472Z,19.90
2019-05-18T02:07:13.367Z,15.00
2019-05-18T02:08:13.369Z,15.90
2019-05-18T02:09:13.360Z,19.10
2019-05-18T02:10:13.355Z,18.60
2019-05-18T02:11:13.350Z,18.70
2019-05-18T02:12:13.346Z,15.10
2019-05-18T02:13:13.341Z,16.80
2019-05-18T02:14:13.336Z,17.30
2019-05-18T02:15:13.334Z,17.10
2019-05-18T02:16:13.330Z,17.20
2019-05-18T02:17:13.329Z,17.10
2019-05-18T02:18:26.878Z,15.80
2019-05-18T02:19:13.320Z,14.40
2019-05-18T02:20:13.311Z,18.70
2019-05-18T02:21:13.316Z,20.80
2019-05-18T02:22:13.305Z,17.30
2019-05-18T02:23:13.306Z,20.30
2019-05-18T02:24:13.307Z,20.30
2019-05-18T02:25:13.291Z,19.70
2019-05-18T02:26:13.286Z,13.30
2019-05-18T02:27:13.281Z,15.90
2019-05-18T02:28:13.278Z,14.20
2019-05-18T02:29:13.273Z,13.40
2019-05-18T02:30:17.340Z,14.90
2019-05-18T02:31:13.265Z,12.80
2019-05-18T02:32:13.261Z,17.10
2019-05-18T02:33:13.261Z,15.40
2019-05-18T02:34:13.256Z,16.10
2019-05-18T02:35:13.248Z,16.10
2019-05-18T02:36:13.246Z,14.30
2019-05-18T02:37:13.239Z,15.50
2019-05-18T02:38:13.237Z,15.30
2019-05-18T02:39:13.231Z,14.80
2019-05-18T02:40:13.227Z,14.70
2019-05-18T02:41:13.223Z,11.30
2019-05-18T02:42:13.217Z,11.80
2019-05-18T02:43:13.213Z,16.70
2019-05-18T02:44:13.211Z,14.50
2019-05-18T02:45:13.204Z,16.50
2019-05-18T02:46:13.204Z,12.30
2019-05-18T02:47:13.197Z,12.10
2019-05-18T02:48:13.193Z,14.70
2019-05-18T02:49:13.188Z,13.60
2019-05-18T02:50:13.185Z,13.70
2019-05-18T02:51:13.179Z,14.40
2019-05-18T02:52:13.175Z,15.60
2019-05-18T02:53:13.168Z,18.80
2019-05-18T02:54:13.164Z,16.10
2019-05-18T02:55:13.160Z,13.80
2019-05-18T02:56:13.155Z,17.20
2019-05-18T02:57:13.153Z,19.10
2019-05-18T02:58:13.148Z,21.00
2019-05-18T02:59:13.145Z,21.50
2019-05-18T03:00:13.148Z,20.60
2019-05-18T03:01:13.133Z,22.90
2019-05-18T03:02:13.174Z,19.50
2019-05-18T03:03:13.142Z,20.80
2019-05-18T03:04:13.121Z,21.10
2019-05-18T03:05:13.120Z,18.00
2019-05-18T03:06:13.111Z,20.00
2019-05-18T03:07:13.106Z,17.30
2019-05-18T03:08:13.122Z,23.60
2019-05-18T03:09:13.100Z,20.60
2019-05-18T03:10:13.093Z,18.60
2019-05-18T03:11:13.090Z,18.00
2019-05-18T03:12:13.085Z,13.90
2019-05-18T03:13:13.080Z,21.60
2019-05-18T03:14:13.076Z,16.10
2019-05-18T03:15:13.073Z,17.50
2019-05-18T03:16:13.065Z,18.20
2019-05-18T03:17:13.065Z,19.00
2019-05-18T03:18:13.065Z,12.30
2019-05-18T03:19:13.052Z,14.90
2019-05-18T03:20:13.049Z,17.70
2019-05-18T03:21:13.043Z,15.20
2019-05-18T03:22:13.040Z,10.00
2019-05-18T03:23:13.038Z,18.30
2019-05-18T03:24:13.034Z,12.50
2019-05-18T03:25:13.034Z,14.20
2019-05-18T03:26:13.029Z,21.80
2019-05-18T03:27:13.022Z,21.60
2019-05-18T03:28:13.011Z,15.00
2019-05-18T03:29:13.008Z,15.00
2019-05-18T03:30:13.008Z,16.00
2019-05-18T03:31:13.022Z,14.30
2019-05-18T03:32:12.994Z,14.10
2019-05-18T03:33:12.990Z,15.20
2019-05-18T03:34:12.989Z,17.90
2019-05-18T03:35:12.980Z,17.90
2019-05-18T03:36:12.976Z,13.30
2019-05-18T03:37:12.970Z,12.20
2019-05-18T03:38:12.966Z,16.20
2019-05-18T03:39:12.963Z,26.00
2019-05-18T03:40:12.956Z,14.10
2019-05-18T03:41:12.952Z,15.10
2019-05-18T03:42:12.946Z,20.70
2019-05-18T03:43:12.978Z,17.00
2019-05-18T03:44:12.937Z,22.50
2019-05-18T03:45:12.934Z,25.20
2019-05-18T03:46:12.928Z,18.50
2019-05-18T03:47:12.924Z,19.80
2019-05-18T03:48:12.919Z,20.90
2019-05-18T03:49:26.476Z,16.50
2019-05-18T03:50:12.910Z,18.60
2019-05-18T03:51:12.909Z,21.50
2019-05-18T03:52:12.905Z,21.20
2019-05-18T03:53:12.901Z,17.20
2019-05-18T03:54:12.890Z,17.40
2019-05-18T03:55:12.893Z,18.90
2019-05-18T03:56:12.885Z,20.90
2019-05-18T03:57:12.880Z,16.90
2019-05-18T03:58:12.871Z,19.90
2019-05-18T03:59:12.867Z,21.00
2019-05-18T04:00:12.864Z,22.80
2019-05-18T04:01:12.859Z,16.20
2019-05-18T04:02:12.852Z,19.80
2019-05-18T04:03:12.849Z,17.70
2019-05-18T04:04:12.845Z,21.90
2019-05-18T04:05:12.839Z,20.50
2019-05-18T04:06:12.840Z,17.10
2019-05-18T04:07:12.829Z,23.90
2019-05-18T04:08:12.826Z,18.60
2019-05-18T04:09:12.822Z,21.00
2019-05-18T04:10:12.818Z,24.80
2019-05-18T04:11:12.822Z,20.70
2019-05-18T04:12:12.816Z,23.80
2019-05-18T04:13:12.803Z,14.40
2019-05-18T04:14:12.797Z,16.80
2019-05-18T04:15:12.813Z,16.50
2019-05-18T04:16:12.791Z,16.60
2019-05-18T04:17:12.782Z,15.30
2019-05-18T04:18:12.778Z,10.40
2019-05-18T04:19:12.775Z,21.50
2019-05-18T04:20:12.768Z,12.50
2019-05-18T04:21:12.765Z,16.30
2019-05-18T04:22:12.759Z,13.50
2019-05-18T04:23:12.756Z,14.10
2019-05-18T04:24:12.749Z,15.30
2019-05-18T04:25:12.746Z,14.50
2019-05-18T04:26:12.742Z,16.10
2019-05-18T04:27:12.740Z,15.60
2019-05-18T04:28:12.733Z,16.60
2019-05-18T04:29:12.732Z,19.00
2019-05-18T04:30:12.726Z,17.40
2019-05-18T04:31:12.719Z,16.00
2019-05-18T04:32:12.718Z,23.00
2019-05-18T04:33:12.727Z,27.50
2019-05-18T04:34:12.703Z,19.10
2019-05-18T04:35:12.699Z,17.90
2019-05-18T04:36:12.712Z,18.70
2019-05-18T04:37:12.691Z,22.10
2019-05-18T04:38:12.691Z,21.90
2019-05-18T04:39:12.683Z,15.60
2019-05-18T04:40:12.678Z,15.90
2019-05-18T04:41:12.680Z,23.40
2019-05-18T04:42:12.672Z,20.30
2019-05-18T04:43:12.670Z,20.10
2019-05-18T04:44:12.660Z,19.50
2019-05-18T04:45:12.658Z,17.90
2019-05-18T04:46:12.656Z,17.30
2019-05-18T04:47:12.651Z,18.30
2019-05-18T04:48:12.666Z,17.10
2019-05-18T04:49:12.636Z,22.00
2019-05-18T04:50:12.639Z,18.70
2019-05-18T04:51:12.633Z,23.20
2019-05-18T04:52:12.625Z,15.90
2019-05-18T04:53:12.621Z,21.40
2019-05-18T04:54:12.618Z,15.70
2019-05-18T04:55:12.609Z,16.60
2019-05-18T04:56:12.606Z,19.00
2019-05-18T04:57:12.605Z,19.10
2019-05-18T04:58:12.598Z,17.30
2019-05-18T04:59:12.592Z,15.70
2019-05-18T05:00:12.590Z,16.50
2019-05-18T05:01:12.586Z,21.20
2019-05-18T05:02:12.582Z,19.50
2019-05-18T05:03:12.579Z,18.30
2019-05-18T05:04:12.578Z,20.30
2019-05-18T05:05:12.568Z,16.30
2019-05-18T05:06:12.563Z,19.20
2019-05-18T05:07:12.564Z,17.80
2019-05-18T05:08:12.554Z,18.00
2019-05-18T05:09:12.550Z,20.40
2019-05-18T05:10:12.548Z,20.90
2019-05-18T05:11:12.541Z,17.80
2019-05-18T05:12:12.538Z,18.50
2019-05-18T05:13:12.537Z,18.30
2019-05-18T05:14:12.530Z,22.30
2019-05-18T05:15:12.524Z,18.10
2019-05-18T05:16:12.521Z,20.20
2019-05-18T05:17:12.538Z,16.90
2019-05-18T05:18:12.512Z,20.60
2019-05-18T05:19:12.510Z,17.60
2019-05-18T05:20:19.890Z,15.40
2019-05-18T05:21:12.504Z,17.50
2019-05-18T05:22:12.498Z,20.60
2019-05-18T05:23:12.498Z,17.80
2019-05-18T05:24:12.489Z,17.20
2019-05-18T05:25:12.489Z,13.90
2019-05-18T05:26:12.483Z,15.20
2019-05-18T05:27:12.478Z,15.80
2019-05-18T05:28:12.476Z,19.50
2019-05-18T05:29:12.473Z,20.80
2019-05-18T05:30:12.470Z,17.20
2019-05-18T05:31:12.463Z,21.10
2019-05-18T05:32:12.465Z,15.20
2019-05-18T05:33:12.461Z,18.00
2019-05-18T05:34:12.452Z,16.00
2019-05-18T05:35:12.466Z,18.20
2019-05-18T05:36:12.446Z,20.60
2019-05-18T05:37:12.448Z,16.30
2019-05-18T05:38:12.438Z,18.50
2019-05-18T05:39:12.438Z,17.50
2019-05-18T05:40:12.432Z,20.60
2019-05-18T05:41:16.507Z,17.90
2019-05-18T05:42:12.425Z,16.00
2019-05-18T05:43:12.423Z,19.70
2019-05-18T05:44:12.421Z,19.20
2019-05-18T05:45:12.418Z,22.00
2019-05-18T05:46:12.417Z,17.30
2019-05-18T05:47:12.412Z,19.20
2019-05-18T05:48:12.405Z,22.00
2019-05-18T05:49:12.402Z,23.70
2019-05-18T05:50:12.428Z,19.60
2019-05-18T05:51:12.400Z,15.40
2019-05-18T05:52:12.392Z,16.70
2019-05-18T05:53:12.390Z,16.00
2019-05-18T05:54:12.386Z,17.30
2019-05-18T05:55:12.383Z,21.70
2019-05-18T05:56:12.380Z,16.40
2019-05-18T05:57:12.383Z,19.20
2019-05-18T05:58:12.372Z,17.80
2019-05-18T05:59:12.370Z,16.20
2019-05-18T06:00:12.367Z,16.60
2019-05-18T06:01:12.365Z,17.30
2019-05-18T06:02:12.362Z,19.70
2019-05-18T06:03:12.359Z,15.50
2019-05-18T06:04:12.356Z,16.40
2019-05-18T06:05:12.352Z,18.80
2019-05-18T06:06:12.350Z,19.10
2019-05-18T06:07:12.348Z,15.40
2019-05-18T06:08:12.346Z,16.60
2019-05-18T06:09:12.343Z,17.90
2019-05-18T06:10:12.337Z,17.20
2019-05-18T06:11:12.336Z,19.30
2019-05-18T06:12:12.333Z,16.80
2019-05-18T06:13:12.332Z,18.40
2019-05-18T06:14:12.340Z,15.90
2019-05-18T06:15:12.324Z,16.60
2019-05-18T06:16:12.325Z,17.70
2019-05-18T06:17:12.320Z,15.10
2019-05-18T06:18:12.316Z,16.50
2019-05-18T06:19:12.315Z,17.80
2019-05-18T06:20:12.312Z,13.80
2019-05-18T06:21:12.310Z,14.80
2019-05-18T06:22:12.306Z,16.20
2019-05-18T06:23:12.306Z,18.40
2019-05-18T06:24:12.302Z,14.70
2019-05-18T06:25:12.407Z,15.10
2019-05-18T06:26:12.308Z,11.70
2019-05-18T06:27:12.293Z,13.50
2019-05-18T06:28:12.342Z,15.20
2019-05-18T06:29:12.291Z,11.10
2019-05-18T06:30:12.300Z,15.20
2019-05-18T06:31:12.286Z,14.20
2019-05-18T06:32:12.282Z,15.30
2019-05-18T06:33:12.280Z,14.00
2019-05-18T06:34:12.278Z,15.90
2019-05-18T06:35:12.275Z,14.50
2019-05-18T06:36:12.273Z,14.40
2019-05-18T06:37:12.271Z,16.00
2019-05-18T06:38:12.268Z,12.10
2019-05-18T06:39:12.265Z,12.80
2019-05-18T06:40:12.263Z,12.50
2019-05-18T06:41:12.267Z,12.70
2019-05-18T06:42:12.260Z,12.10
2019-05-18T06:43:12.257Z,14.00
2019-05-18T06:44:12.255Z,13.60
2019-05-18T06:45:12.254Z,14.20
2019-05-18T06:46:12.251Z,13.40
2019-05-18T06:47:12.250Z,11.40
2019-05-18T06:48:12.248Z,14.30
2019-05-18T06:49:12.263Z,13.10
2019-05-18T06:50:13.223Z,14.80
2019-05-18T06:51:12.242Z,17.60
2019-05-18T06:52:12.240Z,13.70
2019-05-18T06:53:12.237Z,11.10
2019-05-18T06:54:12.250Z,12.60
2019-05-18T06:55:12.235Z,20.80
2019-05-18T06:56:12.235Z,13.60
2019-05-18T06:57:12.231Z,14.70
2019-05-18T06:58:12.227Z,14.70
2019-05-18T06:59:12.227Z,13.30
2019-05-18T07:00:12.226Z,14.30
2019-05-18T07:01:12.223Z,14.50
2019-05-18T07:02:12.223Z,14.80
2019-05-18T07:03:12.221Z,14.30
2019-05-18T07:04:12.231Z,17.90
2019-05-18T07:05:12.217Z,15.00
2019-05-18T07:06:12.216Z,12.20
2019-05-18T07:07:12.215Z,13.50
2019-05-18T07:08:12.212Z,14.10
2019-05-18T07:09:13.984Z,15.50
2019-05-18T07:10:12.212Z,19.50
2019-05-18T07:11:12.209Z,15.60
2019-05-18T07:12:12.212Z,19.60
2019-05-18T07:13:12.207Z,14.40
2019-05-18T07:14:24.888Z,14.50
2019-05-18T07:15:12.203Z,15.30
2019-05-18T07:16:12.203Z,11.90
2019-05-18T07:17:12.202Z,16.00
2019-05-18T07:18:12.200Z,14.80
2019-05-18T07:19:12.204Z,12.20
2019-05-18T07:20:12.209Z,17.90
2019-05-18T07:21:21.880Z,13.10
2019-05-18T07:22:12.196Z,12.20
2019-05-18T07:23:12.200Z,12.00
2019-05-18T07:24:12.194Z,9.00
2019-05-18T07:25:12.193Z,9.40
2019-05-18T07:26:12.192Z,9.60
2019-05-18T07:27:12.193Z,9.50
2019-05-18T07:28:12.193Z,10.70
2019-05-18T07:29:12.189Z,11.80
2019-05-18T07:30:12.189Z,9.30
2019-05-18T07:37:10.390Z,23.80
2019-05-18T07:45:58.517Z,9.20
2019-05-18T07:46:58.514Z,8.70
2019-05-18T07:47:58.516Z,11.10
2019-05-18T07:48:58.519Z,12.80
2019-05-18T07:49:58.515Z,9.00
2019-05-18T07:50:58.516Z,8.90
2019-05-18T07:51:58.517Z,8.30
2019-05-18T07:52:58.518Z,9.90
2019-05-18T07:53:58.520Z,11.50
2019-05-18T07:54:58.523Z,8.70
2019-05-18T07:55:58.523Z,7.00
2019-05-18T07:56:58.525Z,6.20
2019-05-18T07:57:58.528Z,13.20
2019-05-18T07:58:58.530Z,10.50
2019-05-18T07:59:58.534Z,9.50
2019-05-18T08:00:58.538Z,8.90
2019-05-18T08:01:58.543Z,6.50
2019-05-18T08:02:58.545Z,8.70
2019-05-18T08:03:58.549Z,6.60
2019-05-18T08:04:58.554Z,7.70
2019-05-18T08:05:58.557Z,8.70
2019-05-18T08:06:58.564Z,6.40
2019-05-18T08:07:58.564Z,5.20
2019-05-18T08:08:58.568Z,5.20
2019-05-18T08:09:58.571Z,6.90
2019-05-18T08:10:58.575Z,5.70
2019-05-18T08:11:58.579Z,5.90
2019-05-18T08:12:58.583Z,5.60
2019-05-18T08:13:58.587Z,6.50
2019-05-18T08:14:58.593Z,7.70
2019-05-18T08:15:58.601Z,5.80
2019-05-18T08:16:58.600Z,6.70
2019-05-18T08:17:58.606Z,6.30
2019-05-18T08:18:58.609Z,7.10
2019-05-18T08:19:58.614Z,7.70
2019-05-18T08:20:58.628Z,7.30
2019-05-18T08:21:58.627Z,6.30
2019-05-18T08:22:58.626Z,8.80
2019-05-18T08:23:58.634Z,7.20
2019-05-18T08:24:58.638Z,8.60
2019-05-18T08:25:58.644Z,6.70
2019-05-18T08:27:01.834Z,8.70
2019-05-18T08:27:58.653Z,9.00
2019-05-18T08:28:58.662Z,8.00
2019-05-18T08:29:58.667Z,7.50
2019-05-18T08:30:58.673Z,6.90
2019-05-18T08:31:58.676Z,7.00
2019-05-18T08:32:58.681Z,8.20
2019-05-18T08:33:58.687Z,8.00
2019-05-18T08:34:58.692Z,7.20
2019-05-18T08:35:58.703Z,6.40
2019-05-18T08:36:58.704Z,8.50
2019-05-18T08:37:58.710Z,7.50
2019-05-18T08:38:58.717Z,7.40
2019-05-18T08:39:58.728Z,8.40
2019-05-18T08:40:58.731Z,7.00
2019-05-18T08:41:58.736Z,8.80
2019-05-18T08:42:58.742Z,7.50
2019-05-18T08:43:58.761Z,10.60
2019-05-18T08:44:58.759Z,6.30
2019-05-18T08:45:58.764Z,6.90
2019-05-18T08:46:58.771Z,6.00
2019-05-18T08:47:58.780Z,8.40
2019-05-18T08:48:58.787Z,6.10
2019-05-18T08:49:58.793Z,6.80
2019-05-18T08:50:58.802Z,6.80
2019-05-18T08:52:07.763Z,5.70
2019-05-18T08:52:58.819Z,7.60
2019-05-18T08:53:58.836Z,7.10
2019-05-18T08:54:58.835Z,8.10
2019-05-18T08:56:58.854Z,6.10
2019-05-18T08:57:58.865Z,10.00
2019-05-18T08:58:58.870Z,6.00
2019-05-18T09:00:58.889Z,5.70
2019-05-18T09:01:58.899Z,6.60
2019-05-18T09:02:58.906Z,6.30
2019-05-18T09:03:58.917Z,6.90
2019-05-18T09:04:58.953Z,6.50
2019-05-18T09:05:58.931Z,6.30
2019-05-18T09:06:58.936Z,5.70
2019-05-18T09:07:58.944Z,6.10
2019-05-18T09:08:58.953Z,7.80
2019-05-18T09:09:58.960Z,7.80
2019-05-18T09:10:58.972Z,5.90
2019-05-18T09:11:58.977Z,9.30
2019-05-18T09:12:58.984Z,8.60
2019-05-18T09:13:58.989Z,6.40
2019-05-18T09:14:58.999Z,8.60
2019-05-18T09:15:59.006Z,13.90
2019-05-18T09:16:59.012Z,7.70
2019-05-18T09:17:59.028Z,7.80
2019-05-18T09:18:59.030Z,8.90
2019-05-18T09:19:59.039Z,10.20
2019-05-18T09:20:59.046Z,5.60
2019-05-18T09:21:59.051Z,6.60
2019-05-18T09:22:59.058Z,6.00
2019-05-18T09:23:59.069Z,5.40
2019-05-18T09:24:59.075Z,5.20
2019-05-18T09:25:59.085Z,9.60
2019-05-18T09:26:59.103Z,7.60
2019-05-18T09:27:59.104Z,12.90
2019-05-18T09:28:59.110Z,7.50
2019-05-18T09:29:59.118Z,5.60
2019-05-18T09:30:59.124Z,5.40
2019-05-18T09:31:59.136Z,4.40
2019-05-18T09:32:59.143Z,4.90
2019-05-18T09:33:59.153Z,5.40
2019-05-18T09:34:59.167Z,4.70
2019-05-18T09:35:59.169Z,6.80
2019-05-18T09:36:59.178Z,5.40
2019-05-18T09:37:59.189Z,4.30
2019-05-18T09:38:59.200Z,5.80
2019-05-18T09:39:59.203Z,4.80
2019-05-18T09:40:59.213Z,6.20
2019-05-18T09:41:59.221Z,5.00
2019-05-18T09:42:59.230Z,4.70
2019-05-18T09:43:59.239Z,4.50
2019-05-18T09:44:59.250Z,3.40
2019-05-18T09:45:59.258Z,3.40
2019-05-18T09:46:59.268Z,3.60
2019-05-18T09:47:59.278Z,4.50
2019-05-18T09:48:59.288Z,3.80
2019-05-18T09:49:59.297Z,4.10
2019-05-18T09:50:59.307Z,4.20
2019-05-18T09:51:59.318Z,4.20
2019-05-18T09:52:59.329Z,4.00
2019-05-18T09:53:59.337Z,6.80
2019-05-18T09:54:59.349Z,3.40
2019-05-18T09:55:59.359Z,3.40
2019-05-18T09:56:59.369Z,3.90
2019-05-18T09:57:59.377Z,3.60
2019-05-18T09:58:59.389Z,5.70
2019-05-18T09:59:59.399Z,4.40
2019-05-18T10:00:59.408Z,4.30
2019-05-18T10:01:59.419Z,4.20
2019-05-18T10:02:59.429Z,4.10
2019-05-18T10:03:59.438Z,4.40
2019-05-18T10:04:59.493Z,4.40
2019-05-18T10:05:59.457Z,4.30
2019-05-18T10:06:59.468Z,3.40
2019-05-18T10:07:59.476Z,3.90
2019-05-18T10:08:59.486Z,5.40
2019-05-18T10:09:59.497Z,4.90
2019-05-18T10:10:59.503Z,4.30
2019-05-18T10:11:59.517Z,4.40
2019-05-18T10:12:59.523Z,4.40
2019-05-18T10:13:59.557Z,4.20
2019-05-18T10:14:59.542Z,9.80
2019-05-18T10:15:59.550Z,3.70
2019-05-18T10:16:59.563Z,4.30
2019-05-18T10:17:59.582Z,3.30
2019-05-18T10:18:59.577Z,3.50
2019-05-18T10:19:59.588Z,3.00
2019-05-18T10:20:59.593Z,3.20
2019-05-18T10:21:59.609Z,3.90
2019-05-18T10:23:12.248Z,4.20
2019-05-18T10:23:59.621Z,7.90
2019-05-18T10:24:59.632Z,3.80
2019-05-18T10:25:59.637Z,3.10
2019-05-18T10:26:59.644Z,6.40
2019-05-18T10:27:59.655Z,4.90
2019-05-18T10:28:59.664Z,3.80
2019-05-18T10:29:59.680Z,5.60
2019-05-18T10:30:59.681Z,4.50
2019-05-18T10:31:59.689Z,4.80
2019-05-18T10:32:59.698Z,3.80
2019-05-18T10:33:59.706Z,4.50
2019-05-18T10:34:59.716Z,4.00
2019-05-18T10:35:59.726Z,4.50
2019-05-18T10:36:59.735Z,5.10
2019-05-18T10:37:59.742Z,3.70
2019-05-18T10:38:59.754Z,5.60
2019-05-18T10:39:59.763Z,3.70
2019-05-18T10:40:59.776Z,4.20
2019-05-18T10:41:59.782Z,10.40
2019-05-18T10:42:59.791Z,4.50
2019-05-18T10:43:59.801Z,4.00
2019-05-18T10:44:59.809Z,3.90
2019-05-18T10:45:59.831Z,3.90
2019-05-18T10:46:59.828Z,4.70
2019-05-18T10:47:59.878Z,4.70
2019-05-18T10:48:59.851Z,4.50
2019-05-18T10:49:59.858Z,3.70
2019-05-18T10:50:59.868Z,3.70
2019-05-18T10:51:59.888Z,3.10
2019-05-18T10:52:59.890Z,3.20
2019-05-18T10:53:59.898Z,4.60
2019-05-18T10:54:59.910Z,3.60
2019-05-18T10:55:59.920Z,4.10
2019-05-18T10:56:59.930Z,3.30
2019-05-18T10:57:59.940Z,4.50
2019-05-18T10:58:59.951Z,4.60
2019-05-18T10:59:59.964Z,3.10
2019-05-18T11:00:59.972Z,2.80
2019-05-18T11:01:59.982Z,2.50
2019-05-18T11:02:59.993Z,3.30
2019-05-18T11:04:00.003Z,2.90
2019-05-18T11:05:00.016Z,3.60
2019-05-18T11:06:00.025Z,4.20
2019-05-18T11:07:00.036Z,3.00
2019-05-18T11:08:00.047Z,3.70
2019-05-18T11:09:00.059Z,3.80
2019-05-18T11:10:00.067Z,3.30
2019-05-18T11:11:00.077Z,3.60
2019-05-18T11:12:00.094Z,3.30
2019-05-18T11:13:00.099Z,5.50
2019-05-18T11:14:00.109Z,4.60
2019-05-18T11:15:00.124Z,5.20
2019-05-18T11:16:00.128Z,2.80
2019-05-18T11:17:00.139Z,3.40
2019-05-18T11:18:00.148Z,3.20
2019-05-18T11:19:00.158Z,2.80
2019-05-18T11:20:00.172Z,2.90
2019-05-18T11:21:00.179Z,3.10
2019-05-18T11:22:00.185Z,2.80
2019-05-18T11:23:00.194Z,3.00
2019-05-18T11:24:00.204Z,3.00
2019-05-18T11:25:00.212Z,4.30
2019-05-18T11:26:00.222Z,3.50
2019-05-18T11:27:00.228Z,5.60
2019-05-18T11:28:00.237Z,3.80
2019-05-18T11:29:00.245Z,3.10
2019-05-18T11:30:00.256Z,2.70
2019-05-18T11:31:00.261Z,3.40
2019-05-18T11:32:00.270Z,4.40
2019-05-18T11:33:00.277Z,3.50
2019-05-18T11:34:00.284Z,4.00
2019-05-18T11:35:00.318Z,3.00
2019-05-18T11:36:00.304Z,2.60
2019-05-18T11:37:03.139Z,4.20
2019-05-18T11:38:00.314Z,3.20
2019-05-18T11:39:00.321Z,3.70
2019-05-18T11:40:00.329Z,4.40
2019-05-18T11:41:00.337Z,4.20
2019-05-18T11:42:00.342Z,4.50
2019-05-18T11:43:00.349Z,6.70
2019-05-18T11:44:00.358Z,3.60
2019-05-18T11:45:00.366Z,6.30
2019-05-18T11:46:00.369Z,3.80
2019-05-18T11:47:00.377Z,3.20
2019-05-18T11:48:00.383Z,3.60
2019-05-18T11:49:00.391Z,5.80
2019-05-18T11:50:00.399Z,4.30
2019-05-18T11:51:00.405Z,4.80
2019-05-18T11:52:00.409Z,5.10
2019-05-18T11:53:00.416Z,4.20
2019-05-18T11:54:00.421Z,4.90
2019-05-18T11:55:00.428Z,3.10
2019-05-18T11:56:00.448Z,4.00
2019-05-18T11:57:00.463Z,3.30
2019-05-18T11:58:00.448Z,4.90
2019-05-18T11:59:00.456Z,5.40
2019-05-18T12:00:00.461Z,4.20
2019-05-18T12:01:00.466Z,4.00
2019-05-18T12:02:00.472Z,4.10
2019-05-18T12:03:00.481Z,4.30
2019-05-18T12:04:00.489Z,5.00
2019-05-18T12:05:00.490Z,8.10
2019-05-18T12:06:00.494Z,2.70
2019-05-18T12:07:00.625Z,6.10
2019-05-18T12:08:00.509Z,3.40
2019-05-18T12:09:00.513Z,6.20
2019-05-18T12:10:00.521Z,5.80
2019-05-18T12:11:00.523Z,4.30
2019-05-18T12:12:00.536Z,3.90
2019-05-18T12:13:00.536Z,3.30
2019-05-18T12:14:00.541Z,6.30
2019-05-18T12:15:00.547Z,3.20
2019-05-18T12:16:00.555Z,3.50
2019-05-18T12:17:00.558Z,5.50
2019-05-18T12:18:00.598Z,5.70
2019-05-18T12:19:00.572Z,7.70
2019-05-18T12:20:00.576Z,4.40
2019-05-18T12:21:00.580Z,5.30
2019-05-18T12:22:00.586Z,4.20
2019-05-18T12:23:00.593Z,7.50
2019-05-18T12:24:14.143Z,3.90
2019-05-18T12:25:00.608Z,4.30
2019-05-18T12:26:00.623Z,3.30
2019-05-18T12:27:00.613Z,9.20
2019-05-18T12:28:00.621Z,3.00
2019-05-18T12:29:00.624Z,3.00
2019-05-18T12:30:00.628Z,2.90
2019-05-18T12:31:02.163Z,3.00
2019-05-18T12:32:00.638Z,3.30
2019-05-18T12:33:00.649Z,4.50
2019-05-18T12:34:00.658Z,4.20
2019-05-18T12:35:00.655Z,6.00
2019-05-18T12:36:00.658Z,2.60
2019-05-18T12:37:00.674Z,3.00
2019-05-18T12:38:00.672Z,2.80
2019-05-18T12:39:00.675Z,3.20
2019-05-18T12:40:00.687Z,2.30
2019-05-18T12:41:00.685Z,2.70
2019-05-18T12:42:00.689Z,3.90
2019-05-18T12:43:00.695Z,2.20
2019-05-18T12:44:00.699Z,3.30
2019-05-18T12:45:00.711Z,4.90
2019-05-18T12:46:00.713Z,6.00
2019-05-18T12:47:00.736Z,2.60
2019-05-18T12:48:00.723Z,8.70
2019-05-18T12:49:00.736Z,2.50
2019-05-18T12:50:00.732Z,4.20
2019-05-18T12:51:00.738Z,3.40
2019-05-18T12:52:00.743Z,4.30
2019-05-18T12:53:00.748Z,2.90
2019-05-18T12:54:00.764Z,6.80
2019-05-18T12:55:00.759Z,2.40
2019-05-18T12:56:00.763Z,3.60
2019-05-18T12:57:00.771Z,3.90
2019-05-18T12:58:00.776Z,2.30
2019-05-18T12:59:00.781Z,2.80
2019-05-18T13:00:00.787Z,3.10
2019-05-18T13:01:00.794Z,3.40
2019-05-18T13:02:00.800Z,3.50
2019-05-18T13:03:00.807Z,2.90
2019-05-18T13:04:00.814Z,2.60
2019-05-18T13:05:00.817Z,2.50
2019-05-18T13:06:00.823Z,3.80
2019-05-18T13:07:00.829Z,3.30
2019-05-18T13:08:00.837Z,2.70
2019-05-18T13:09:00.840Z,3.00
2019-05-18T13:10:00.864Z,3.90
2019-05-18T13:11:00.854Z,2.90
2019-05-18T13:12:00.863Z,2.90
2019-05-18T13:13:00.866Z,2.70
2019-05-18T13:14:00.872Z,4.20
2019-05-18T13:15:00.878Z,7.90
2019-05-18T13:16:00.883Z,3.10
2019-05-18T13:17:00.894Z,4.80
2019-05-18T13:18:00.896Z,3.20
2019-05-18T13:19:00.902Z,2.40